createdAt,value
2022-08-05T00:02:08.024Z,4.07
2022-08-05T00:04:37.979Z,4.70
2022-08-05T00:07:27.525Z,4.77
2022-08-05T00:09:53.411Z,4.10
2022-08-05T00:12:21.272Z,4.30
2022-08-05T00:14:48.553Z,4.27
2022-08-05T00:17:19.570Z,4.50
2022-08-05T00:20:02.544Z,4.50
2022-08-05T00:22:29.889Z,4.83
2022-08-05T00:24:57.896Z,4.83
2022-08-05T00:27:28.427Z,4.50
2022-08-05T00:30:04.244Z,4.40
2022-08-05T00:32:30.903Z,4.90
2022-08-05T00:35:06.812Z,4.83
2022-08-05T00:37:35.396Z,4.80
2022-08-05T00:40:26.827Z,4.97
2022-08-05T00:42:59.577Z,4.60
2022-08-05T00:45:38.783Z,4.80
2022-08-05T00:48:15.758Z,4.50
2022-08-05T00:50:46.044Z,5.20
2022-08-05T00:54:01.264Z,4.93
2022-08-05T00:56:05.573Z,4.93
2022-08-05T00:58:34.980Z,4.50
2022-08-05T01:01:03.819Z,5.30
2022-08-05T01:03:35.447Z,4.40
2022-08-05T01:06:02.622Z,4.57
2022-08-05T01:08:43.660Z,4.70
2022-08-05T01:11:33.412Z,4.60
2022-08-05T01:14:11.840Z,4.53
2022-08-05T01:16:52.298Z,4.60
2022-08-05T01:19:21.618Z,4.60
2022-08-05T01:22:18.699Z,4.50
2022-08-05T01:24:50.398Z,4.50
2022-08-05T01:27:55.895Z,4.63
2022-08-05T01:30:34.028Z,4.60
2022-08-05T01:33:03.966Z,4.43
2022-08-05T01:35:51.873Z,4.50
2022-08-05T01:38:27.016Z,4.47
2022-08-05T01:40:55.584Z,4.90
2022-08-05T01:43:24.185Z,4.60
2022-08-05T01:45:56.429Z,3.97
2022-08-05T01:48:25.485Z,4.20
2022-08-05T01:50:55.293Z,4.70
2022-08-05T01:53:54.697Z,4.30
2022-08-05T01:56:10.290Z,4.77
2022-08-05T01:58:45.232Z,5.00
2022-08-05T02:01:13.644Z,4.70
2022-08-05T02:03:45.086Z,4.30
2022-08-05T02:06:33.328Z,4.20
2022-08-05T02:08:59.372Z,3.90
2022-08-05T02:11:33.515Z,4.40
2022-08-05T02:14:12.672Z,4.13
2022-08-05T02:16:52.150Z,4.40
2022-08-05T02:19:34.372Z,4.40
2022-08-05T02:22:25.685Z,4.10
2022-08-05T02:24:56.436Z,4.40
2022-08-05T02:27:30.211Z,4.53
2022-08-05T02:30:13.663Z,4.50
2022-08-05T02:32:41.216Z,4.53
2022-08-05T02:35:14.043Z,4.47
2022-08-05T02:37:42.148Z,4.40
2022-08-05T02:40:21.178Z,5.03
2022-08-05T02:42:52.828Z,4.47
2022-08-05T02:45:25.205Z,4.93
2022-08-05T02:48:11.710Z,4.50
2022-08-05T02:50:43.925Z,4.93
2022-08-05T02:53:16.002Z,4.70
2022-08-05T02:55:54.885Z,4.80
2022-08-05T02:58:27.349Z,5.07
2022-08-05T03:00:56.799Z,4.70
2022-08-05T03:03:24.008Z,4.80
2022-08-05T03:06:57.088Z,4.80
2022-08-05T03:08:38.971Z,5.17
2022-08-05T03:11:55.218Z,4.73
2022-08-05T03:14:08.013Z,5.37
2022-08-05T03:16:35.744Z,5.27
2022-08-05T03:19:08.775Z,5.03
2022-08-05T03:21:48.543Z,5.57
2022-08-05T03:24:18.405Z,5.13
2022-08-05T03:26:56.396Z,4.90
2022-08-05T03:29:24.031Z,5.23
2022-08-05T03:31:57.315Z,6.00
2022-08-05T03:34:28.135Z,5.77
2022-08-05T03:36:55.527Z,6.67
2022-08-05T03:39:26.755Z,6.67
2022-08-05T03:41:56.243Z,6.70
2022-08-05T03:44:23.388Z,6.80
2022-08-05T03:46:50.329Z,6.47
2022-08-05T03:49:17.185Z,6.87
2022-08-05T03:52:38.144Z,6.77
2022-08-05T03:55:54.209Z,6.50
2022-08-05T03:57:42.285Z,7.17
2022-08-05T04:00:11.876Z,7.00
2022-08-05T04:02:52.203Z,6.67
2022-08-05T04:05:33.208Z,7.50
2022-08-05T04:08:02.681Z,7.50
2022-08-05T04:10:37.224Z,7.00
2022-08-05T04:13:05.806Z,7.47
2022-08-05T04:15:36.119Z,8.07
2022-08-05T04:18:07.022Z,7.17
2022-08-05T04:20:35.343Z,7.80
2022-08-05T04:23:02.161Z,8.30
2022-08-05T04:25:56.984Z,7.80
2022-08-05T04:28:17.417Z,7.07
2022-08-05T04:30:44.444Z,7.63
2022-08-05T04:33:12.220Z,8.17
2022-08-05T04:36:11.186Z,8.07
2022-08-05T04:38:39.506Z,7.60
2022-08-05T04:41:07.384Z,7.60
2022-08-05T04:43:36.016Z,7.77
2022-08-05T04:46:04.986Z,7.60
2022-08-05T04:48:31.809Z,8.03
2022-08-05T04:51:01.706Z,8.73
2022-08-05T04:53:33.373Z,7.57
2022-08-05T04:56:14.724Z,7.87
2022-08-05T04:58:48.592Z,7.60
2022-08-05T05:01:15.239Z,7.70
2022-08-05T05:04:00.750Z,8.47
2022-08-05T05:06:37.051Z,7.23
2022-08-05T05:09:14.290Z,7.47
2022-08-05T05:11:55.458Z,7.33
2022-08-05T05:14:27.953Z,8.00
2022-08-05T05:16:58.698Z,7.87
2022-08-05T05:19:26.647Z,7.30
2022-08-05T05:21:55.683Z,7.73
2022-08-05T05:24:22.426Z,7.33
2022-08-05T05:27:08.886Z,7.70
2022-08-05T05:30:03.193Z,7.67
2022-08-05T05:32:23.203Z,7.20
2022-08-05T05:34:52.382Z,7.77
2022-08-05T05:37:19.212Z,7.83
2022-08-05T05:39:45.762Z,7.40
2022-08-05T05:42:12.479Z,7.57
2022-08-05T05:44:43.092Z,7.40
2022-08-05T05:47:21.750Z,7.43
2022-08-05T05:49:52.529Z,7.17
2022-08-05T05:52:28.573Z,6.63
2022-08-05T05:55:02.017Z,7.07
2022-08-05T05:57:42.927Z,7.20
2022-08-05T06:00:21.661Z,6.73
2022-08-05T06:02:58.166Z,6.70
2022-08-05T06:05:25.699Z,6.90
2022-08-05T06:08:01.218Z,6.77
2022-08-05T06:10:29.273Z,6.07
2022-08-05T06:12:56.023Z,6.13
2022-08-05T06:15:24.525Z,5.77
2022-08-05T06:18:10.929Z,5.88
2022-08-05T06:20:38.290Z,5.28
2022-08-05T06:23:05.005Z,5.28
2022-08-05T06:26:12.259Z,6.35
2022-08-05T06:28:21.645Z,6.50
2022-08-05T06:30:48.689Z,5.40
2022-08-05T06:33:19.080Z,5.22
2022-08-05T06:36:04.151Z,5.20
2022-08-05T06:38:35.920Z,5.53
2022-08-05T06:41:04.266Z,5.10
2022-08-05T06:43:58.457Z,4.68
2022-08-05T06:46:18.078Z,4.25
2022-08-05T06:48:55.652Z,4.80
2022-08-05T06:51:30.058Z,4.38
2022-08-05T06:54:02.138Z,4.88
2022-08-05T06:56:29.986Z,4.45
2022-08-05T06:59:00.059Z,4.28
2022-08-05T07:01:31.954Z,4.22
2022-08-05T07:04:01.420Z,3.95
2022-08-05T07:06:29.098Z,3.95
2022-08-05T07:08:55.757Z,3.35
2022-08-05T07:11:25.256Z,3.33
2022-08-05T07:14:20.689Z,3.58
2022-08-05T07:18:01.615Z,3.40
2022-08-05T07:20:31.396Z,3.65
2022-08-05T07:22:38.405Z,3.70
2022-08-05T07:25:22.130Z,3.40
2022-08-05T07:27:58.694Z,3.40
2022-08-05T07:30:32.829Z,2.97
2022-08-05T07:33:05.213Z,3.33
2022-08-05T07:36:02.608Z,3.33
2022-08-05T07:38:32.053Z,3.10
2022-08-05T07:41:16.797Z,3.70
2022-08-05T07:43:48.529Z,3.15
2022-08-05T07:46:24.485Z,3.80
2022-08-05T07:49:02.172Z,3.20
2022-08-05T07:51:36.770Z,3.15
2022-08-05T07:54:05.654Z,3.20
2022-08-05T07:57:01.857Z,3.40
2022-08-05T07:59:38.342Z,3.08
2022-08-05T08:02:16.082Z,3.10
2022-08-05T08:04:48.208Z,3.20
2022-08-05T08:07:15.838Z,3.20
2022-08-05T08:09:43.274Z,3.13
2022-08-05T08:12:29.706Z,3.85
2022-08-05T08:14:56.865Z,3.22
2022-08-05T08:17:28.777Z,3.20
2022-08-05T08:20:21.653Z,3.53
2022-08-05T08:22:43.735Z,3.10
2022-08-05T08:25:16.351Z,3.10
2022-08-05T08:27:47.685Z,3.65
2022-08-05T08:30:29.727Z,3.35
2022-08-05T08:33:04.617Z,2.95
2022-08-05T08:35:41.419Z,3.55
2022-08-05T08:38:32.291Z,3.28
2022-08-05T08:41:07.268Z,3.22
2022-08-05T08:45:24.059Z,3.20
2022-08-05T08:46:24.119Z,3.55
2022-08-05T08:49:07.810Z,3.10
2022-08-05T08:52:03.854Z,3.58
2022-08-05T08:54:27.361Z,3.08
2022-08-05T08:56:54.369Z,3.35
2022-08-05T08:59:23.518Z,3.10
2022-08-05T09:01:57.238Z,3.50
2022-08-05T09:04:30.554Z,3.45
2022-08-05T09:06:57.742Z,3.30
2022-08-05T09:09:25.241Z,3.05
2022-08-05T09:11:55.339Z,3.28
2022-08-05T09:14:57.619Z,2.90
2022-08-05T09:17:42.699Z,2.63
2022-08-05T09:20:05.225Z,3.10
2022-08-05T09:23:09.574Z,3.10
2022-08-05T09:26:03.069Z,3.17
2022-08-05T09:28:31.662Z,3.30
2022-08-05T09:31:43.687Z,2.95
2022-08-05T09:33:59.349Z,2.78
2022-08-05T09:36:53.949Z,3.15
2022-08-05T09:39:24.700Z,3.35
2022-08-05T09:42:07.869Z,2.70
2022-08-05T09:44:38.947Z,2.85
2022-08-05T09:47:15.769Z,2.72
2022-08-05T09:50:00.780Z,3.40
2022-08-05T09:52:35.020Z,2.90
2022-08-05T09:55:56.749Z,2.85
2022-08-05T09:57:58.559Z,2.97
2022-08-05T10:00:26.028Z,2.55
2022-08-05T10:02:58.131Z,3.53
2022-08-05T10:05:28.222Z,3.10
2022-08-05T10:08:35.823Z,2.70
2022-08-05T10:10:50.195Z,3.10
2022-08-05T10:13:47.412Z,2.70
2022-08-05T10:16:37.897Z,2.95
2022-08-05T10:19:19.103Z,2.67
2022-08-05T10:21:50.784Z,3.22
2022-08-05T10:24:21.074Z,2.90
2022-08-05T10:26:56.380Z,3.10
2022-08-05T10:30:06.706Z,2.70
2022-08-05T10:32:51.848Z,2.90
2022-08-05T10:35:04.110Z,3.00
2022-08-05T10:37:37.148Z,2.70
2022-08-05T10:40:17.819Z,3.00
2022-08-05T10:42:48.438Z,2.65
2022-08-05T10:45:23.986Z,2.78
2022-08-05T10:48:52.691Z,2.80
2022-08-05T10:51:29.156Z,2.80
2022-08-05T10:54:01.639Z,3.28
2022-08-05T10:56:44.848Z,3.30
2022-08-05T10:59:12.643Z,2.70
2022-08-05T11:02:14.495Z,3.00
2022-08-05T11:04:56.765Z,2.78
2022-08-05T11:07:32.993Z,3.15
2022-08-05T11:10:27.487Z,3.10
2022-08-05T11:12:55.261Z,2.63
2022-08-05T11:15:59.173Z,2.78
2022-08-05T11:18:29.788Z,2.70
2022-08-05T11:20:59.678Z,2.67
2022-08-05T11:24:04.590Z,2.72
2022-08-05T11:26:40.553Z,3.28
2022-08-05T11:29:37.595Z,2.88
2022-08-05T11:32:28.488Z,3.10
2022-08-05T11:34:56.313Z,3.22
2022-08-05T11:38:29.279Z,2.85
2022-08-05T11:41:34.350Z,3.30
2022-08-05T11:44:05.044Z,3.05
2022-08-05T11:46:58.205Z,2.80
2022-08-05T11:49:33.860Z,3.10
2022-08-05T11:52:01.137Z,3.22
2022-08-05T11:54:33.705Z,2.85
2022-08-05T11:57:08.575Z,3.20
2022-08-05T11:59:50.386Z,2.85
2022-08-05T12:02:31.823Z,3.00
2022-08-05T12:05:06.805Z,2.70
2022-08-05T12:08:03.468Z,3.00
2022-08-05T12:10:43.753Z,3.55
2022-08-05T12:13:16.477Z,3.05
2022-08-05T12:15:45.064Z,3.08
2022-08-05T12:18:32.821Z,3.55
2022-08-05T12:21:17.528Z,3.70
2022-08-05T12:24:00.050Z,3.30
2022-08-05T12:26:33.376Z,3.40
2022-08-05T12:29:01.408Z,3.65
2022-08-05T12:31:33.684Z,3.40
2022-08-05T12:34:20.276Z,3.38
2022-08-05T12:36:48.369Z,3.50
2022-08-05T12:39:18.199Z,3.20
2022-08-05T12:41:45.137Z,4.05
2022-08-05T12:44:28.697Z,3.90
2022-08-05T12:47:01.752Z,4.30
2022-08-05T12:50:03.201Z,3.60
2022-08-05T12:52:29.773Z,3.50
2022-08-05T12:55:02.086Z,3.45
2022-08-05T12:58:38.958Z,3.70
2022-08-05T13:02:03.463Z,3.95
2022-08-05T13:03:14.733Z,3.33
2022-08-05T13:05:42.072Z,3.80
2022-08-05T13:08:08.915Z,3.85
2022-08-05T13:10:50.331Z,4.05
2022-08-05T13:14:05.834Z,3.40
2022-08-05T13:16:13.098Z,3.63
2022-08-05T13:19:01.559Z,3.60
2022-08-05T13:21:38.107Z,3.30
2022-08-05T13:24:27.649Z,3.28
2022-08-05T13:27:03.644Z,3.50
2022-08-05T13:29:37.866Z,3.30
2022-08-05T13:32:05.606Z,3.65
2022-08-05T13:34:33.406Z,3.40
2022-08-05T13:37:00.459Z,3.75
2022-08-05T13:40:15.890Z,3.38
2022-08-05T13:42:15.277Z,3.05
2022-08-05T13:44:45.794Z,3.38
2022-08-05T13:47:35.729Z,3.30
2022-08-05T13:50:01.319Z,3.53
2022-08-05T13:52:31.537Z,3.17
2022-08-05T13:55:02.580Z,4.03
2022-08-05T13:57:49.049Z,3.55
2022-08-05T14:00:26.825Z,3.60
2022-08-05T14:02:55.734Z,3.45
2022-08-05T14:05:48.096Z,3.72
2022-08-05T14:08:19.804Z,3.75
2022-08-05T14:10:48.884Z,3.22
2022-08-05T14:13:16.232Z,3.40
2022-08-05T14:16:07.194Z,3.58
2022-08-05T14:18:29.593Z,3.55
2022-08-05T14:20:56.086Z,3.38
2022-08-05T14:23:25.772Z,3.47
2022-08-05T14:25:58.247Z,3.40
2022-08-05T14:28:27.929Z,3.35
2022-08-05T14:30:56.115Z,3.50
2022-08-05T14:33:23.858Z,3.20
2022-08-05T14:35:51.918Z,3.78
2022-08-05T14:38:33.333Z,3.40
2022-08-05T14:41:06.705Z,3.83
2022-08-05T14:43:57.500Z,3.40
2022-08-05T14:46:28.339Z,3.55
2022-08-05T14:49:06.608Z,3.45
2022-08-05T14:51:36.574Z,3.53
2022-08-05T14:54:27.007Z,3.50
2022-08-05T14:56:51.085Z,3.50
2022-08-05T14:59:21.777Z,4.72
2022-08-05T15:01:49.804Z,3.63
2022-08-05T15:04:20.713Z,3.88
2022-08-05T15:06:50.043Z,3.70
2022-08-05T15:09:51.099Z,3.35
2022-08-05T15:12:09.536Z,3.72
2022-08-05T15:14:49.366Z,3.28
2022-08-05T15:17:46.748Z,3.70
2022-08-05T15:20:06.125Z,3.70
2022-08-05T15:22:33.507Z,3.65
2022-08-05T15:25:00.230Z,3.50
2022-08-05T15:27:38.160Z,3.92
2022-08-05T15:30:11.029Z,3.80
2022-08-05T15:32:41.348Z,4.22
2022-08-05T15:35:10.616Z,4.10
2022-08-05T15:38:31.876Z,4.05
2022-08-05T15:40:59.157Z,4.15
2022-08-05T15:43:20.644Z,3.92
2022-08-05T15:45:47.820Z,4.10
2022-08-05T15:48:28.243Z,3.72
2022-08-05T15:50:55.105Z,4.10
2022-08-05T15:53:23.040Z,4.18
2022-08-05T15:56:02.761Z,4.38
2022-08-05T15:58:35.506Z,4.18
2022-08-05T16:01:17.179Z,3.47
2022-08-05T16:03:48.749Z,3.97
2022-08-05T16:06:19.575Z,3.53
2022-08-05T16:08:47.518Z,3.40
2022-08-05T16:11:14.065Z,4.03
2022-08-05T16:13:41.225Z,3.95
2022-08-05T16:16:07.925Z,3.85
2022-08-05T16:18:51.714Z,4.10
2022-08-05T16:21:20.575Z,4.28
2022-08-05T16:23:54.979Z,4.22
2022-08-05T16:26:26.370Z,4.50
2022-08-05T16:28:54.531Z,4.60
2022-08-05T16:31:21.465Z,4.68
2022-08-05T16:33:48.376Z,4.55
2022-08-05T16:36:15.090Z,3.90
2022-08-05T16:38:54.841Z,4.10
2022-08-05T16:42:14.196Z,4.28
2022-08-05T16:44:09.896Z,3.70
2022-08-05T16:46:38.834Z,3.78
2022-08-05T16:49:09.023Z,4.32
2022-08-05T16:51:50.254Z,3.85
2022-08-05T16:54:25.726Z,4.00
2022-08-05T16:56:54.107Z,4.15
2022-08-05T16:59:20.822Z,4.25
2022-08-05T17:01:54.477Z,4.10
2022-08-05T17:04:27.731Z,4.10
2022-08-05T17:06:56.915Z,4.18
2022-08-05T17:09:28.099Z,3.88
2022-08-05T17:11:59.600Z,4.65
2022-08-05T17:14:36.930Z,3.95
2022-08-05T17:17:05.160Z,4.40
2022-08-05T17:19:31.652Z,4.32
2022-08-05T17:21:58.545Z,4.15
2022-08-05T17:24:35.136Z,4.38
2022-08-05T17:27:08.944Z,4.47
2022-08-05T17:29:40.994Z,4.15
2022-08-05T17:32:11.953Z,5.03
2022-08-05T17:34:44.645Z,4.40
2022-08-05T17:37:39.716Z,4.32
2022-08-05T17:40:01.564Z,4.55
2022-08-05T17:42:32.469Z,4.40
2022-08-05T17:45:17.746Z,4.90
2022-08-05T17:47:53.028Z,4.65
2022-08-05T17:50:30.134Z,4.45
2022-08-05T17:53:04.984Z,5.00
2022-08-05T17:55:38.201Z,4.88
2022-08-05T17:58:12.899Z,5.38
2022-08-05T18:00:45.385Z,4.97
2022-08-05T18:03:28.095Z,5.10
2022-08-05T18:06:04.919Z,5.10
2022-08-05T18:08:35.129Z,5.35
2022-08-05T18:11:03.267Z,4.93
2022-08-05T18:13:36.587Z,4.70
2022-08-05T18:16:13.417Z,4.85
2022-08-05T18:18:40.870Z,4.70
2022-08-05T18:21:13.054Z,4.95
2022-08-05T18:23:47.168Z,5.38
2022-08-05T18:26:13.887Z,5.20
2022-08-05T18:28:44.666Z,6.15
2022-08-05T18:31:13.295Z,5.35
2022-08-05T18:33:47.272Z,4.57
2022-08-05T18:36:17.505Z,5.05
2022-08-05T18:38:46.197Z,4.90
2022-08-05T18:41:55.404Z,5.38
2022-08-05T18:44:06.204Z,5.47
2022-08-05T18:46:34.386Z,5.30
2022-08-05T18:49:21.048Z,5.95
2022-08-05T18:52:08.933Z,6.32
2022-08-05T18:54:41.416Z,5.90
2022-08-05T18:57:15.515Z,5.93
2022-08-05T19:00:02.467Z,6.40
2022-08-05T19:02:28.995Z,5.88
2022-08-05T19:05:02.687Z,9.23
2022-08-05T19:07:45.947Z,6.50
2022-08-05T19:10:14.031Z,6.30
2022-08-05T19:12:40.538Z,7.00
2022-08-05T19:15:45.100Z,7.25
2022-08-05T19:18:08.355Z,6.40
2022-08-05T19:20:36.507Z,7.30
2022-08-05T19:23:07.927Z,6.57
2022-08-05T19:25:43.409Z,6.57
2022-08-05T19:28:10.427Z,7.03
2022-08-05T19:30:37.018Z,7.03
2022-08-05T19:33:05.111Z,6.97
2022-08-05T19:35:55.831Z,6.20
2022-08-05T19:38:26.565Z,7.40
2022-08-05T19:40:53.627Z,6.60
2022-08-05T19:43:31.204Z,6.93
2022-08-05T19:46:16.908Z,6.90
2022-08-05T19:48:54.279Z,6.60
2022-08-05T19:52:05.759Z,6.53
2022-08-05T19:54:27.000Z,5.50
2022-08-05T19:56:57.892Z,5.50
2022-08-05T20:00:00.522Z,6.38
2022-08-05T20:02:11.559Z,5.47
2022-08-05T20:04:38.308Z,6.22
2022-08-05T20:07:13.309Z,5.88
2022-08-05T20:09:54.008Z,6.03
2022-08-05T20:12:22.708Z,5.83
2022-08-05T20:14:52.287Z,6.60
2022-08-05T20:17:19.845Z,7.60
2022-08-05T20:19:56.984Z,6.00
2022-08-05T20:22:26.654Z,6.93
2022-08-05T20:24:53.861Z,6.83
2022-08-05T20:27:21.035Z,6.97
2022-08-05T20:29:58.183Z,6.77
2022-08-05T20:32:26.361Z,6.57
2022-08-05T20:34:53.226Z,6.30
2022-08-05T20:38:06.770Z,7.07
2022-08-05T20:40:08.599Z,7.93
2022-08-05T20:42:35.546Z,6.10
2022-08-05T20:45:02.622Z,6.97
2022-08-05T20:47:31.760Z,6.60
2022-08-05T20:50:00.032Z,8.07
2022-08-05T20:52:29.569Z,6.83
2022-08-05T20:55:15.891Z,7.13
2022-08-05T20:57:44.673Z,7.60
2022-08-05T21:00:41.380Z,7.57
2022-08-05T21:03:07.031Z,8.43
2022-08-05T21:05:48.149Z,8.03
2022-08-05T21:08:26.440Z,8.17
2022-08-05T21:10:54.558Z,7.47
2022-08-05T21:13:26.159Z,7.60
2022-08-05T21:16:12.212Z,7.73
2022-08-05T21:18:38.851Z,7.87
2022-08-05T21:21:11.834Z,7.07
2022-08-05T21:23:38.996Z,7.67
2022-08-05T21:26:08.358Z,7.57
2022-08-05T21:28:41.152Z,7.40
2022-08-05T21:31:18.739Z,7.73
2022-08-05T21:33:47.745Z,7.23
2022-08-05T21:36:27.467Z,6.90
2022-08-05T21:38:56.529Z,6.83
2022-08-05T21:41:23.223Z,6.73
2022-08-05T21:43:50.932Z,6.87
2022-08-05T21:46:30.176Z,7.17
2022-08-05T21:48:57.074Z,7.20
2022-08-05T21:52:15.869Z,6.40
2022-08-05T21:54:13.020Z,6.73
2022-08-05T21:56:44.618Z,7.23
2022-08-05T21:59:23.975Z,8.60
2022-08-05T22:01:51.814Z,9.20
2022-08-05T22:04:21.505Z,9.53
2022-08-05T22:06:52.323Z,8.67
2022-08-05T22:09:21.583Z,8.23
2022-08-05T22:11:48.986Z,8.20
2022-08-05T22:14:32.999Z,7.60
2022-08-05T22:17:05.016Z,9.00
2022-08-05T22:20:03.484Z,8.90
2022-08-05T22:22:26.663Z,8.50
2022-08-05T22:25:21.190Z,9.93
2022-08-05T22:28:09.439Z,9.57
2022-08-05T22:30:55.471Z,10.10
2022-08-05T22:33:56.594Z,9.60
2022-08-05T22:36:14.298Z,9.70
2022-08-05T22:38:42.665Z,10.73
2022-08-05T22:41:10.118Z,10.47
2022-08-05T22:43:37.930Z,10.30
2022-08-05T22:46:11.845Z,10.30
2022-08-05T22:48:39.675Z,10.83
2022-08-05T22:51:07.671Z,10.53
2022-08-05T22:53:35.844Z,10.37
2022-08-05T22:56:03.597Z,9.70
2022-08-05T22:58:36.466Z,10.23
2022-08-05T23:01:03.032Z,10.77
2022-08-05T23:03:57.988Z,10.77
2022-08-05T23:06:18.919Z,11.03
2022-08-05T23:08:45.761Z,10.60
2022-08-05T23:11:18.846Z,9.60
2022-08-05T23:13:45.789Z,10.17
2022-08-05T23:16:38.671Z,9.77
2022-08-05T23:19:10.589Z,10.07
2022-08-05T23:21:50.582Z,10.03
2022-08-05T23:24:17.235Z,9.63
2022-08-05T23:26:45.830Z,10.07
2022-08-05T23:29:15.630Z,9.70
2022-08-05T23:31:42.644Z,9.70
2022-08-05T23:34:11.097Z,9.90
2022-08-05T23:36:38.415Z,9.50
2022-08-05T23:39:06.363Z,9.90
2022-08-05T23:41:34.378Z,10.77
2022-08-05T23:44:08.697Z,10.17
2022-08-05T23:46:37.481Z,9.90
2022-08-05T23:49:17.011Z,9.70
2022-08-05T23:52:07.843Z,10.10
2022-08-05T23:54:38.496Z,10.37
2022-08-05T23:57:06.586Z,9.03
